createdAt,value
2019-04-21T00:02:11.047Z,17.07
2019-04-21T00:04:54.995Z,20.40
2019-04-21T00:07:37.742Z,16.93
2019-04-21T00:10:18.853Z,15.37
2019-04-21T00:12:49.256Z,17.90
2019-04-21T00:15:16.735Z,19.50
2019-04-21T00:17:39.080Z,20.13
2019-04-21T00:20:23.842Z,20.03
2019-04-21T00:23:05.926Z,16.43
2019-04-21T00:25:36.195Z,18.13
2019-04-21T00:28:16.873Z,19.53
2019-04-21T00:30:50.840Z,18.57
2019-04-21T00:33:17.125Z,20.33
2019-04-21T00:35:49.919Z,17.97
2019-04-21T00:38:56.369Z,19.63
2019-04-21T00:41:16.101Z,18.67
2019-04-21T00:43:46.331Z,18.67
2019-04-21T00:46:10.818Z,17.70
2019-04-21T00:48:56.479Z,20.60
2019-04-21T00:51:49.838Z,19.73
2019-04-21T00:54:16.692Z,17.83
2019-04-21T00:56:50.043Z,18.40
2019-04-21T00:59:20.016Z,18.33
2019-04-21T01:01:49.386Z,17.83
2019-04-21T01:04:30.724Z,18.10
2019-04-21T01:07:03.041Z,20.73
2019-04-21T01:09:29.076Z,18.60
2019-04-21T01:12:07.825Z,17.00
2019-04-21T01:14:50.261Z,17.60
2019-04-21T01:17:19.299Z,18.63
2019-04-21T01:19:43.898Z,18.90
2019-04-21T01:22:05.788Z,20.73
2019-04-21T01:24:43.371Z,18.07
2019-04-21T01:27:25.045Z,19.53
2019-04-21T01:30:05.688Z,18.43
2019-04-21T01:32:46.985Z,18.33
2019-04-21T01:35:21.135Z,22.70
2019-04-21T01:38:03.040Z,21.17
2019-04-21T01:40:40.838Z,20.67
2019-04-21T01:43:17.612Z,21.07
2019-04-21T01:45:53.517Z,18.07
2019-04-21T01:48:25.750Z,21.07
2019-04-21T01:50:56.795Z,19.87
2019-04-21T01:54:03.539Z,19.73
2019-04-21T01:57:03.372Z,19.27
2019-04-21T01:59:30.551Z,20.37
2019-04-21T02:02:15.997Z,18.93
2019-04-21T02:04:49.192Z,20.87
2019-04-21T02:07:15.182Z,27.07
2019-04-21T02:09:55.388Z,20.70
2019-04-21T02:12:41.066Z,19.90
2019-04-21T02:15:00.735Z,20.67
2019-04-21T02:17:29.750Z,22.37
2019-04-21T02:19:56.166Z,19.87
2019-04-21T02:22:46.749Z,24.20
2019-04-21T02:27:47.445Z,21.60
2019-04-21T02:30:27.612Z,19.83
2019-04-21T02:33:21.752Z,19.53
2019-04-21T02:38:08.913Z,22.90
2019-04-21T02:43:18.652Z,25.60
2019-04-21T02:45:56.036Z,22.17
2019-04-21T02:48:30.812Z,22.93
2019-04-21T02:51:01.587Z,23.87
2019-04-21T02:56:11.189Z,22.23
2019-04-21T02:58:57.006Z,23.50
2019-04-21T03:01:49.016Z,25.10
2019-04-21T03:05:02.393Z,25.17
2019-04-21T03:12:37.690Z,22.10
2019-04-21T03:17:49.970Z,23.73
2019-04-21T03:20:23.693Z,25.83
2019-04-21T03:23:00.386Z,22.83
2019-04-21T03:28:06.451Z,24.33
2019-04-21T03:33:59.514Z,24.20
2019-04-21T03:36:12.929Z,22.07
2019-04-21T03:38:37.489Z,27.37
2019-04-21T03:40:57.272Z,23.17
2019-04-21T03:46:23.227Z,24.07
2019-04-21T03:48:44.281Z,22.70
2019-04-21T03:51:31.423Z,25.83
2019-04-21T03:53:48.076Z,26.53
2019-04-21T03:56:27.232Z,25.07
2019-04-21T04:01:41.233Z,22.63
2019-04-21T04:07:42.474Z,26.37
2019-04-21T04:10:02.482Z,27.20
2019-04-21T04:12:28.538Z,28.63
2019-04-21T04:15:12.107Z,25.53
2019-04-21T04:17:40.466Z,23.67
2019-04-21T04:20:11.741Z,24.93
2019-04-21T04:22:52.630Z,23.30
2019-04-21T04:25:18.846Z,22.37
2019-04-21T04:28:05.761Z,23.13
2019-04-21T04:32:59.456Z,21.67
2019-04-21T04:35:45.798Z,20.60
2019-04-21T04:38:03.039Z,19.57
2019-04-21T04:41:07.983Z,19.17
2019-04-21T04:43:54.691Z,20.00
2019-04-21T04:48:45.121Z,21.13
2019-04-21T04:51:12.297Z,21.33
2019-04-21T04:53:47.186Z,20.30
2019-04-21T04:56:50.172Z,20.70
2019-04-21T05:01:46.871Z,24.33
2019-04-21T05:04:07.595Z,20.67
2019-04-21T05:14:41.027Z,25.23
2019-04-21T05:17:10.815Z,28.73
2019-04-21T05:22:04.981Z,23.87
2019-04-21T05:24:33.246Z,23.23
2019-04-21T05:27:02.853Z,24.13
2019-04-21T05:29:54.991Z,21.67
2019-04-21T05:32:45.256Z,21.13
2019-04-21T05:35:36.917Z,19.53
2019-04-21T05:38:17.193Z,21.33
2019-04-21T05:40:41.408Z,21.43
2019-04-21T05:43:26.001Z,21.13
2019-04-21T05:45:58.353Z,19.13
2019-04-21T05:48:39.239Z,25.73
2019-04-21T05:51:03.597Z,25.33
2019-04-21T05:53:42.462Z,23.40
2019-04-21T05:56:15.970Z,22.73
2019-04-21T05:58:48.060Z,25.30
2019-04-21T06:01:43.725Z,24.57
2019-04-21T06:04:03.545Z,25.07
2019-04-21T06:06:33.702Z,20.07
2019-04-21T06:09:00.929Z,22.43
2019-04-21T06:11:36.593Z,28.60
2019-04-21T06:14:31.052Z,23.77
2019-04-21T06:16:54.321Z,25.00
2019-04-21T06:19:24.050Z,26.90
2019-04-21T06:21:44.744Z,26.43
2019-04-21T06:24:21.795Z,28.27
2019-04-21T06:29:30.107Z,23.30
2019-04-21T06:32:28.092Z,25.60
2019-04-21T06:34:53.477Z,25.17
2019-04-21T06:42:54.058Z,24.57
2019-04-21T06:45:20.074Z,25.13
2019-04-21T06:48:02.838Z,24.07
2019-04-21T06:50:35.251Z,24.57
2019-04-21T06:53:22.076Z,26.67
2019-04-21T06:55:32.358Z,27.00
2019-04-21T06:58:07.981Z,21.37
2019-04-21T07:00:38.838Z,26.33
2019-04-21T07:05:50.602Z,22.60
2019-04-21T07:08:29.032Z,24.50
2019-04-21T07:10:54.477Z,28.97
2019-04-21T07:13:29.054Z,24.50
2019-04-21T07:16:07.194Z,22.80
2019-04-21T07:18:41.573Z,25.67
2019-04-21T07:21:07.937Z,27.47
2019-04-21T07:23:47.511Z,24.73
2019-04-21T07:26:10.511Z,22.97
2019-04-21T07:28:56.494Z,24.03
2019-04-21T07:31:31.947Z,24.27
2019-04-21T07:34:00.230Z,25.70
2019-04-21T07:36:38.331Z,22.40
2019-04-21T07:39:04.167Z,23.43
2019-04-21T07:41:31.030Z,24.00
2019-04-21T07:44:00.392Z,22.63
2019-04-21T07:46:36.589Z,23.20
2019-04-21T07:49:38.173Z,26.67
2019-04-21T07:52:48.964Z,23.47
2019-04-21T07:57:45.731Z,28.83
2019-04-21T08:00:29.331Z,24.17
2019-04-21T08:03:00.452Z,22.87
2019-04-21T08:05:31.356Z,22.10
2019-04-21T08:07:57.774Z,18.70
2019-04-21T08:10:39.140Z,25.07
2019-04-21T08:13:28.811Z,19.97
2019-04-21T08:16:00.559Z,23.67
2019-04-21T08:18:35.007Z,20.77
2019-04-21T08:21:06.100Z,24.33
2019-04-21T08:23:43.514Z,22.67
2019-04-21T08:26:13.915Z,24.80
2019-04-21T08:28:53.693Z,25.17
2019-04-21T08:31:33.981Z,19.63
2019-04-21T08:34:03.301Z,18.37
2019-04-21T08:36:30.853Z,20.73
2019-04-21T08:38:59.756Z,22.67
2019-04-21T08:41:34.547Z,23.07
2019-04-21T08:44:10.662Z,21.73
2019-04-21T08:46:39.066Z,19.93
2019-04-21T08:49:17.360Z,24.17
2019-04-21T08:51:53.882Z,19.67
2019-04-21T08:57:28.870Z,19.03
2019-04-21T09:00:20.101Z,14.53
2019-04-21T09:03:03.739Z,19.07
2019-04-21T09:05:35.680Z,18.17
2019-04-21T09:08:11.579Z,18.50
2019-04-21T09:10:47.041Z,15.67
2019-04-21T09:13:17.375Z,15.20
2019-04-21T09:15:49.632Z,14.83
2019-04-21T09:18:18.552Z,19.30
2019-04-21T09:21:01.128Z,20.07
2019-04-21T09:23:36.387Z,16.73
2019-04-21T09:26:05.634Z,16.33
2019-04-21T09:28:36.723Z,17.80
2019-04-21T09:30:57.774Z,20.23
2019-04-21T09:33:33.434Z,19.60
2019-04-21T09:36:06.230Z,19.63
2019-04-21T09:38:39.853Z,16.40
2019-04-21T09:41:15.954Z,14.50
2019-04-21T09:43:46.558Z,15.33
2019-04-21T09:46:14.207Z,14.83
2019-04-21T09:48:55.063Z,19.98
2019-04-21T09:51:19.980Z,17.50
2019-04-21T09:53:57.255Z,15.50
2019-04-21T09:56:36.089Z,15.73
2019-04-21T09:59:11.351Z,14.47
2019-04-21T10:01:45.191Z,17.70
2019-04-21T10:04:05.775Z,14.43
2019-04-21T10:06:39.540Z,15.08
2019-04-21T10:09:16.040Z,15.95
2019-04-21T10:11:48.395Z,14.95
2019-04-21T10:14:19.770Z,19.32
2019-04-21T10:17:06.909Z,20.70
2019-04-21T10:19:39.740Z,15.85
2019-04-21T10:22:12.526Z,17.37
2019-04-21T10:24:52.320Z,16.05
2019-04-21T10:27:25.565Z,15.58
2019-04-21T10:29:59.346Z,12.37
2019-04-21T10:32:34.461Z,15.20
2019-04-21T10:35:07.460Z,12.98
2019-04-21T10:37:55.145Z,12.05
2019-04-21T10:40:17.986Z,12.15
2019-04-21T10:42:50.055Z,11.40
2019-04-21T10:45:21.234Z,14.70
2019-04-21T10:47:54.724Z,12.20
2019-04-21T10:50:31.317Z,10.35
2019-04-21T10:53:16.970Z,13.25
2019-04-21T10:56:11.452Z,12.05
2019-04-21T10:58:42.380Z,12.50
2019-04-21T11:01:21.433Z,10.00
2019-04-21T11:04:22.778Z,9.88
2019-04-21T11:07:04.222Z,10.05
2019-04-21T11:09:32.264Z,9.03
2019-04-21T11:12:04.087Z,10.35
2019-04-21T11:14:35.492Z,8.38
2019-04-21T11:17:07.877Z,11.48
2019-04-21T11:19:38.941Z,9.45
2019-04-21T11:22:10.512Z,7.92
2019-04-21T11:24:43.034Z,10.80
2019-04-21T11:27:14.986Z,9.90
2019-04-21T11:29:47.466Z,9.08
2019-04-21T11:32:19.071Z,11.95
2019-04-21T11:34:49.923Z,8.10
2019-04-21T11:37:24.654Z,10.85
2019-04-21T11:40:03.360Z,8.13
2019-04-21T11:42:35.600Z,8.68
2019-04-21T11:45:12.513Z,7.45
2019-04-21T11:48:04.202Z,8.95
2019-04-21T11:50:37.015Z,9.65
2019-04-21T11:53:23.170Z,8.55
2019-04-21T11:56:18.727Z,9.50
2019-04-21T11:59:05.895Z,10.43
2019-04-21T12:01:45.664Z,8.68
2019-04-21T12:04:43.453Z,8.85
2019-04-21T12:07:29.329Z,8.30
2019-04-21T12:10:03.890Z,8.58
2019-04-21T12:12:35.457Z,7.47
2019-04-21T12:15:08.119Z,10.45
2019-04-21T12:17:41.780Z,6.90
2019-04-21T12:20:12.766Z,7.15
2019-04-21T12:22:43.641Z,8.68
2019-04-21T12:25:16.696Z,9.98
2019-04-21T12:27:50.361Z,14.60
2019-04-21T12:30:21.895Z,10.45
2019-04-21T12:33:06.352Z,8.78
2019-04-21T12:35:39.788Z,7.50
2019-04-21T12:38:10.949Z,8.43
2019-04-21T12:40:44.349Z,11.97
2019-04-21T12:43:16.774Z,9.10
2019-04-21T12:45:49.613Z,8.08
2019-04-21T12:48:22.124Z,8.45
2019-04-21T12:50:54.292Z,8.00
2019-04-21T12:53:29.727Z,8.55
2019-04-21T12:56:05.468Z,6.95
2019-04-21T12:58:43.521Z,9.83
2019-04-21T13:01:20.949Z,8.20
2019-04-21T13:03:53.584Z,8.73
2019-04-21T13:06:25.521Z,7.83
2019-04-21T13:09:03.426Z,8.20
2019-04-21T13:11:30.959Z,8.75
2019-04-21T13:14:06.143Z,7.97
2019-04-21T13:16:37.434Z,8.10
2019-04-21T13:19:09.385Z,6.97
2019-04-21T13:21:40.850Z,5.78
2019-04-21T13:24:15.825Z,9.10
2019-04-21T13:26:58.024Z,11.73
2019-04-21T13:32:43.227Z,5.55
2019-04-21T13:35:19.119Z,7.47
2019-04-21T13:37:50.698Z,5.90
2019-04-21T13:41:01.118Z,5.45
2019-04-21T13:43:19.006Z,6.45
2019-04-21T13:45:51.806Z,5.37
2019-04-21T13:48:24.414Z,10.98
2019-04-21T13:50:59.436Z,8.60
2019-04-21T13:53:34.949Z,6.55
2019-04-21T13:56:06.970Z,6.40
2019-04-21T13:58:38.261Z,6.30
2019-04-21T14:01:11.835Z,7.83
2019-04-21T14:03:45.510Z,8.38
2019-04-21T14:06:16.587Z,5.42
2019-04-21T14:08:56.910Z,5.97
2019-04-21T14:11:29.321Z,7.47
2019-04-21T14:14:00.650Z,6.03
2019-04-21T14:16:35.981Z,7.08
2019-04-21T14:19:07.609Z,7.78
2019-04-21T14:21:39.366Z,3.80
2019-04-21T14:24:10.856Z,4.12
2019-04-21T14:26:42.848Z,6.37
2019-04-21T14:29:15.380Z,4.75
2019-04-21T14:31:48.427Z,4.58
2019-04-21T14:34:21.819Z,5.20
2019-04-21T14:36:54.922Z,6.20
2019-04-21T14:39:26.378Z,7.37
2019-04-21T14:41:58.157Z,7.22
2019-04-21T14:44:29.227Z,7.75
2019-04-21T14:47:53.036Z,5.53
2019-04-21T14:50:46.399Z,6.15
2019-04-21T14:53:21.102Z,4.03
2019-04-21T14:55:53.189Z,5.65
2019-04-21T14:58:25.435Z,5.50
2019-04-21T15:01:06.035Z,6.78
2019-04-21T15:03:39.481Z,5.37
2019-04-21T15:06:09.769Z,4.28
2019-04-21T15:08:58.447Z,4.15
2019-04-21T15:11:33.807Z,4.12
2019-04-21T15:14:09.616Z,4.83
2019-04-21T15:16:49.517Z,5.80
2019-04-21T15:19:22.414Z,5.45
2019-04-21T15:21:54.274Z,5.28
2019-04-21T15:24:26.519Z,7.35
2019-04-21T15:26:58.976Z,9.60
2019-04-21T15:29:30.851Z,10.70
2019-04-21T15:32:04.281Z,6.45
2019-04-21T15:34:38.244Z,6.75
2019-04-21T15:37:08.530Z,6.42
2019-04-21T15:39:42.500Z,7.28
2019-04-21T15:42:18.648Z,7.65
2019-04-21T15:44:56.805Z,9.48
2019-04-21T15:47:37.997Z,6.35
2019-04-21T15:50:17.618Z,10.72
2019-04-21T15:52:49.707Z,7.08
2019-04-21T15:55:39.080Z,9.18
2019-04-21T15:58:28.265Z,6.42
2019-04-21T16:01:30.256Z,7.42
2019-04-21T16:04:06.534Z,9.23
2019-04-21T16:06:41.830Z,8.05
2019-04-21T16:09:25.789Z,9.75
2019-04-21T16:11:59.988Z,7.58
2019-04-21T16:14:32.472Z,9.55
2019-04-21T16:17:03.403Z,8.30
2019-04-21T16:19:34.324Z,6.72
2019-04-21T16:22:08.527Z,9.65
2019-04-21T16:24:43.886Z,7.22
2019-04-21T16:27:19.476Z,9.10
2019-04-21T16:29:52.146Z,11.15
2019-04-21T16:32:24.080Z,10.98
2019-04-21T16:35:01.529Z,6.92
2019-04-21T16:37:35.466Z,6.08
2019-04-21T16:40:11.684Z,6.12
2019-04-21T16:42:47.978Z,8.78
2019-04-21T16:45:39.023Z,6.95
2019-04-21T16:48:19.157Z,7.40
2019-04-21T16:50:57.401Z,7.22
2019-04-21T16:53:37.722Z,6.72
2019-04-21T16:56:29.439Z,8.68
2019-04-21T16:59:08.620Z,7.08
2019-04-21T17:01:54.239Z,7.72
2019-04-21T17:04:26.460Z,8.35
2019-04-21T17:07:00.875Z,9.23
2019-04-21T17:09:34.702Z,5.83
2019-04-21T17:12:11.491Z,9.50
2019-04-21T17:14:58.211Z,7.12
2019-04-21T17:17:37.188Z,8.10
2019-04-21T17:19:53.787Z,7.12
2019-04-21T17:22:25.752Z,9.15
2019-04-21T17:25:02.664Z,7.87
2019-04-21T17:27:47.081Z,10.53
2019-04-21T17:30:30.780Z,6.78
2019-04-21T17:33:14.951Z,7.65
2019-04-21T17:35:42.801Z,7.55
2019-04-21T17:38:16.376Z,9.50
2019-04-21T17:40:47.853Z,7.62
2019-04-21T17:43:21.753Z,7.25
2019-04-21T17:45:54.919Z,8.90
2019-04-21T17:48:29.281Z,7.53
2019-04-21T17:51:21.442Z,7.70
2019-04-21T17:54:15.966Z,7.75
2019-04-21T17:59:45.089Z,9.28
2019-04-21T18:02:05.132Z,8.00
2019-04-21T18:04:43.118Z,8.20
2019-04-21T18:07:34.963Z,7.67
2019-04-21T18:10:07.455Z,8.08
2019-04-21T18:12:36.439Z,7.67
2019-04-21T18:15:20.599Z,8.30
2019-04-21T18:17:36.530Z,10.05
2019-04-21T18:20:12.260Z,9.93
2019-04-21T18:23:19.865Z,8.90
2019-04-21T18:25:50.534Z,7.53
2019-04-21T18:28:14.499Z,9.05
2019-04-21T18:31:02.398Z,10.18
2019-04-21T18:33:40.892Z,10.65
2019-04-21T18:36:34.818Z,10.63
2019-04-21T18:39:46.132Z,7.70
2019-04-21T18:42:54.394Z,10.03
2019-04-21T18:46:14.507Z,10.20
2019-04-21T18:48:51.580Z,9.05
2019-04-21T18:51:57.569Z,9.73
2019-04-21T18:54:49.093Z,11.20
2019-04-21T18:57:21.982Z,12.10
2019-04-21T18:59:51.316Z,13.37
2019-04-21T19:02:39.075Z,11.22
2019-04-21T19:05:17.193Z,11.95
2019-04-21T19:08:08.968Z,10.68
2019-04-21T19:10:52.209Z,13.03
2019-04-21T19:13:36.339Z,11.78
2019-04-21T19:16:22.564Z,10.85
2019-04-21T19:19:06.409Z,12.65
2019-04-21T19:21:07.312Z,9.43
2019-04-21T19:24:03.717Z,10.80
2019-04-21T19:26:21.704Z,15.60
2019-04-21T19:28:52.674Z,10.13
2019-04-21T19:31:23.557Z,11.18
2019-04-21T19:33:48.756Z,11.30
2019-04-21T19:36:08.769Z,10.40
2019-04-21T19:38:49.074Z,12.45
2019-04-21T19:41:28.001Z,11.23
2019-04-21T19:44:03.781Z,12.63
2019-04-21T19:46:31.551Z,10.25
2019-04-21T19:49:13.434Z,11.33
2019-04-21T19:51:35.231Z,11.80
2019-04-21T19:54:02.168Z,10.60
2019-04-21T19:56:30.457Z,10.53
2019-04-21T19:59:01.469Z,13.32
2019-04-21T20:01:35.137Z,10.53
2019-04-21T20:04:14.603Z,12.93
2019-04-21T20:07:00.725Z,13.97
2019-04-21T20:09:36.738Z,11.77
2019-04-21T20:12:10.693Z,12.03
2019-04-21T20:15:37.346Z,14.27
2019-04-21T20:18:16.529Z,14.40
2019-04-21T20:20:40.825Z,18.83
2019-04-21T20:23:19.212Z,21.13
2019-04-21T20:25:50.940Z,21.03
2019-04-21T20:28:33.356Z,20.23
2019-04-21T20:31:15.523Z,21.77
2019-04-21T20:33:59.941Z,20.63
2019-04-21T20:36:43.187Z,24.60
2019-04-21T20:39:03.539Z,26.00
2019-04-21T20:41:40.580Z,26.13
2019-04-21T20:44:19.512Z,20.90
2019-04-21T20:46:51.616Z,20.50
2019-04-21T20:49:19.237Z,24.30
2019-04-21T20:52:04.818Z,24.63
2019-04-21T20:54:31.728Z,23.30
2019-04-21T20:57:06.958Z,23.97
2019-04-21T20:59:31.732Z,27.37
2019-04-21T21:02:16.602Z,25.77
2019-04-21T21:04:32.643Z,21.00
2019-04-21T21:07:30.601Z,28.63
2019-04-21T21:09:55.550Z,26.50
2019-04-21T21:12:34.594Z,26.27
2019-04-21T21:14:52.975Z,23.50
2019-04-21T21:20:21.235Z,25.37
2019-04-21T21:26:36.774Z,24.13
2019-04-21T21:29:11.623Z,22.67
2019-04-21T21:32:05.204Z,22.60
2019-04-21T21:34:32.920Z,20.67
2019-04-21T21:37:17.441Z,23.93
2019-04-21T21:39:48.846Z,23.33
2019-04-21T21:41:59.730Z,20.03
2019-04-21T21:44:28.239Z,20.30
2019-04-21T21:47:12.057Z,20.10
2019-04-21T21:49:43.685Z,20.07
2019-04-21T21:52:14.567Z,21.30
2019-04-21T21:54:36.006Z,22.07
2019-04-21T21:57:10.218Z,23.70
2019-04-21T21:59:41.876Z,23.83
2019-04-21T22:02:17.118Z,22.50
2019-04-21T22:05:05.411Z,26.53
2019-04-21T22:07:38.742Z,21.07
2019-04-21T22:10:32.789Z,23.70
2019-04-21T22:13:14.156Z,30.47
2019-04-21T22:16:10.361Z,31.10
2019-04-21T22:19:07.950Z,27.63
2019-04-21T22:21:53.607Z,39.90
2019-04-21T22:24:36.271Z,29.50
2019-04-21T22:26:49.609Z,31.90
2019-04-21T22:29:21.336Z,26.43
2019-04-21T22:32:04.162Z,38.23
2019-04-21T22:34:35.762Z,27.60
2019-04-21T22:37:22.769Z,32.03
2019-04-21T22:39:53.054Z,25.07
2019-04-21T22:42:18.944Z,23.97
2019-04-21T22:44:44.033Z,26.67
2019-04-21T22:47:21.912Z,25.20
2019-04-21T22:49:46.638Z,33.80
2019-04-21T22:52:23.889Z,28.00
2019-04-21T22:54:55.812Z,31.67
2019-04-21T22:57:32.727Z,29.73
2019-04-21T23:00:07.098Z,29.77
2019-04-21T23:02:38.548Z,27.93
2019-04-21T23:05:09.878Z,31.13
2019-04-21T23:07:50.297Z,25.90
2019-04-21T23:10:17.204Z,26.20
2019-04-21T23:12:52.173Z,22.27
2019-04-21T23:15:35.638Z,22.67
2019-04-21T23:18:17.803Z,22.77
2019-04-21T23:20:53.562Z,19.40
2019-04-21T23:23:35.805Z,17.70
2019-04-21T23:26:11.306Z,19.37
2019-04-21T23:28:55.742Z,16.80
2019-04-21T23:31:19.809Z,20.70
2019-04-21T23:33:33.257Z,15.77
2019-04-21T23:36:12.902Z,16.13
2019-04-21T23:38:44.183Z,13.87
2019-04-21T23:41:15.385Z,15.40
2019-04-21T23:43:53.099Z,14.17
2019-04-21T23:46:28.147Z,14.57
2019-04-21T23:49:07.489Z,15.30
2019-04-21T23:51:37.717Z,15.37
2019-04-21T23:54:01.779Z,16.90
2019-04-21T23:56:39.470Z,19.80
2019-04-21T23:59:11.590Z,13.97
